Alapayevsk, Russia
Current Conditions -  °F | °C
As of 2:00 PM on Sunday 21 Dec 2014 (Local Time) from USSS Reporting Station
Overcast Overcast  
Wind Chill: 22°   Ceiling: 2200
Heat Index: 30°   Visibility: 6mi
Dew Point: 27°   Wind: 9mph
Humidity: 86%   Direction: 160°SSE
Pressure: 29.59"   Gusts: NA
Location:  57.84°N, 61.69°E
Report Text: USSS 210900Z 16004MPS 9999 BKN022 OVC067 M01/M03 Q1002 7629//40NOSIG RMK QFE731
Loading
Personal Weather Stations






























Interactive Weather Map New forecast layout! Learn more

10-Day Weather Forecast

Advertisements
Track Severe Weather on mobile